createdAt,value
2022-08-22T00:00:08.157Z,26.94
2022-08-22T00:00:28.328Z,26.91
2022-08-22T00:00:38.929Z,26.92
2022-08-22T00:00:48.696Z,26.94
2022-08-22T00:00:58.607Z,26.92
2022-08-22T00:01:08.683Z,26.91
2022-08-22T00:01:28.796Z,26.91
2022-08-22T00:01:38.740Z,26.91
2022-08-22T00:01:48.953Z,26.91
2022-08-22T00:01:58.856Z,26.89
2022-08-22T00:02:09.100Z,26.89
2022-08-22T00:02:29.165Z,26.92
2022-08-22T00:02:39.091Z,26.92
2022-08-22T00:02:41.709Z,26.72
2022-08-22T00:02:42.245Z,25.61
2022-08-22T00:02:43.289Z,26.77
2022-08-22T00:02:44.326Z,25.42
2022-08-22T00:02:45.442Z,25.52
2022-08-22T00:02:46.509Z,25.53
2022-08-22T00:02:47.782Z,25.90
2022-08-22T00:02:49.264Z,25.79
2022-08-22T00:02:49.334Z,25.53
2022-08-22T00:02:53.053Z,25.27
2022-08-22T00:02:55.263Z,26.74
2022-08-22T00:02:55.896Z,26.96
2022-08-22T00:02:57.731Z,26.99
2022-08-22T00:02:57.968Z,26.87
2022-08-22T00:02:58.382Z,26.09
2022-08-22T00:02:58.605Z,26.67
2022-08-22T00:02:58.874Z,26.76
2022-08-22T00:03:00.232Z,26.12
2022-08-22T00:03:00.473Z,26.67
2022-08-22T00:03:00.885Z,26.68
2022-08-22T00:03:01.449Z,26.67
2022-08-22T00:03:02.139Z,26.86
2022-08-22T00:03:04.653Z,25.59
2022-08-22T00:03:07.177Z,26.96
2022-08-22T00:03:07.177Z,25.37
2022-08-22T00:03:07.953Z,25.44
2022-08-22T00:03:08.326Z,25.52
2022-08-22T00:03:08.440Z,26.74
2022-08-22T00:03:09.033Z,26.96
2022-08-22T00:03:10.196Z,26.74
2022-08-22T00:03:16.135Z,26.92
2022-08-22T00:03:16.333Z,26.96
2022-08-22T00:03:16.334Z,26.92
2022-08-22T00:03:24.766Z,26.92
2022-08-22T00:03:29.690Z,26.91
2022-08-22T00:03:39.739Z,26.92
2022-08-22T00:03:50.697Z,26.92
2022-08-22T00:03:59.877Z,26.92
2022-08-22T00:04:10.129Z,26.89
2022-08-22T00:04:33.467Z,26.92
2022-08-22T00:04:40.108Z,26.92
2022-08-22T00:04:50.343Z,26.92
2022-08-22T00:05:00.228Z,26.92
2022-08-22T00:05:10.274Z,26.91
2022-08-22T00:05:20.295Z,26.91
2022-08-22T00:05:30.319Z,26.91
2022-08-22T00:05:40.342Z,26.92
2022-08-22T00:05:50.377Z,26.91
2022-08-22T00:06:00.408Z,26.92
2022-08-22T00:06:10.430Z,26.92
2022-08-22T00:06:20.449Z,26.91
2022-08-22T00:06:30.480Z,26.92
2022-08-22T00:06:40.497Z,26.91
2022-08-22T00:06:50.550Z,26.89
2022-08-22T00:07:00.588Z,26.92
2022-08-22T00:07:10.701Z,26.94
2022-08-22T00:07:20.727Z,26.92
2022-08-22T00:07:30.759Z,26.92
2022-08-22T00:07:40.789Z,26.95
2022-08-22T00:07:50.810Z,26.95
2022-08-22T00:08:00.832Z,26.95
2022-08-22T00:08:10.859Z,26.96
2022-08-22T00:08:20.881Z,26.94
2022-08-22T00:08:30.921Z,26.96
2022-08-22T00:08:40.953Z,26.98
2022-08-22T00:08:50.989Z,26.99
2022-08-22T00:09:01.032Z,26.98
2022-08-22T00:09:11.079Z,27.01
2022-08-22T00:09:21.120Z,27.01
2022-08-22T00:09:31.170Z,26.99
2022-08-22T00:09:41.197Z,26.98
2022-08-22T00:09:51.215Z,26.99
2022-08-22T00:10:01.249Z,26.99
2022-08-22T00:10:11.281Z,26.99
2022-08-22T00:10:25.598Z,26.98
2022-08-22T00:10:31.378Z,26.96
2022-08-22T00:10:41.439Z,26.95
2022-08-22T00:10:51.479Z,27.01
2022-08-22T00:11:01.530Z,26.95
2022-08-22T00:11:21.561Z,26.98
2022-08-22T00:11:31.580Z,26.95
2022-08-22T00:11:41.689Z,26.95
2022-08-22T00:11:51.750Z,26.96
2022-08-22T00:12:01.760Z,26.96
2022-08-22T00:12:21.811Z,26.95
2022-08-22T00:12:31.850Z,26.96
2022-08-22T00:12:41.891Z,26.96
2022-08-22T00:12:51.921Z,26.98
2022-08-22T00:13:01.980Z,26.95
2022-08-22T00:13:22.040Z,26.98
2022-08-22T00:13:32.069Z,26.95
2022-08-22T00:13:42.180Z,26.95
2022-08-22T00:13:54.830Z,26.96
2022-08-22T00:14:02.340Z,26.95
2022-08-22T00:14:22.698Z,26.98
2022-08-22T00:14:32.598Z,26.98
2022-08-22T00:14:42.628Z,26.96
2022-08-22T00:14:52.667Z,26.96
2022-08-22T00:15:02.728Z,26.95
2022-08-22T00:15:42.142Z,26.96
2022-08-22T00:15:43.533Z,26.96
2022-08-22T00:15:44.305Z,26.95
2022-08-22T00:15:53.012Z,26.94
2022-08-22T00:16:03.042Z,26.95
2022-08-22T00:16:23.199Z,26.96
2022-08-22T00:16:33.230Z,26.95
2022-08-22T00:16:43.331Z,26.96
2022-08-22T00:16:53.501Z,26.94
2022-08-22T00:17:03.441Z,26.95
2022-08-22T00:17:23.491Z,26.95
2022-08-22T00:17:33.702Z,26.95
2022-08-22T00:17:43.591Z,26.95
2022-08-22T00:17:53.663Z,26.94
2022-08-22T00:18:05.603Z,26.95
2022-08-22T00:18:23.731Z,26.95
2022-08-22T00:18:33.790Z,26.98
2022-08-22T00:18:43.821Z,26.95
2022-08-22T00:18:53.852Z,26.96
2022-08-22T00:19:03.973Z,26.94
2022-08-22T00:19:24.052Z,26.92
2022-08-22T00:19:34.092Z,26.91
2022-08-22T00:19:44.202Z,26.92
2022-08-22T00:19:54.240Z,26.92
2022-08-22T00:20:04.273Z,26.92
2022-08-22T00:20:28.209Z,26.91
2022-08-22T00:20:34.413Z,26.92
2022-08-22T00:20:44.473Z,26.92
2022-08-22T00:20:54.695Z,26.92
2022-08-22T00:21:04.570Z,26.94
2022-08-22T00:21:24.702Z,26.92
2022-08-22T00:21:34.733Z,26.92
2022-08-22T00:21:44.773Z,26.94
2022-08-22T00:21:54.822Z,26.92
2022-08-22T00:22:04.853Z,26.95
2022-08-22T00:22:24.914Z,26.95
2022-08-22T00:22:34.954Z,26.94
2022-08-22T00:22:44.974Z,26.94
2022-08-22T00:22:55.024Z,26.92
2022-08-22T00:23:05.043Z,26.94
2022-08-22T00:23:25.185Z,26.92
2022-08-22T00:23:35.272Z,26.92
2022-08-22T00:23:45.323Z,26.94
2022-08-22T00:23:55.372Z,26.92
2022-08-22T00:24:05.394Z,26.91
2022-08-22T00:24:25.450Z,26.92
2022-08-22T00:24:35.494Z,26.92
2022-08-22T00:24:45.695Z,26.91
2022-08-22T00:24:55.571Z,26.91
2022-08-22T00:25:05.597Z,26.89
2022-08-22T00:25:26.331Z,26.94
2022-08-22T00:25:36.180Z,26.91
2022-08-22T00:25:45.914Z,26.92
2022-08-22T00:25:56.135Z,26.89
2022-08-22T00:26:06.018Z,26.87
2022-08-22T00:26:26.483Z,26.91
2022-08-22T00:26:36.233Z,26.89
2022-08-22T00:26:46.261Z,26.89
2022-08-22T00:26:56.294Z,26.91
2022-08-22T00:27:06.513Z,26.87
2022-08-22T00:27:26.556Z,26.89
2022-08-22T00:27:36.676Z,26.91
2022-08-22T00:27:46.644Z,26.91
2022-08-22T00:27:56.823Z,26.94
2022-08-22T00:28:06.764Z,26.92
2022-08-22T00:28:26.819Z,26.95
2022-08-22T00:28:36.914Z,26.94
2022-08-22T00:28:47.024Z,26.95
2022-08-22T00:28:57.055Z,26.94
2022-08-22T00:29:07.433Z,26.95
2022-08-22T00:29:27.434Z,26.94
2022-08-22T00:29:37.377Z,26.94
2022-08-22T00:29:47.308Z,26.94
2022-08-22T00:29:57.364Z,26.94
2022-08-22T00:30:07.637Z,26.94
2022-08-22T00:30:27.696Z,26.95
2022-08-22T00:30:37.575Z,26.92
2022-08-22T00:30:47.665Z,26.94
2022-08-22T00:30:57.708Z,26.94
2022-08-22T00:31:07.732Z,26.91
2022-08-22T00:31:27.829Z,26.92
2022-08-22T00:31:37.874Z,26.92
2022-08-22T00:31:47.936Z,26.92
2022-08-22T00:31:57.955Z,26.91
2022-08-22T00:32:08.025Z,26.89
2022-08-22T00:32:28.118Z,26.89
2022-08-22T00:32:38.165Z,26.89
2022-08-22T00:32:48.198Z,26.87
2022-08-22T00:32:58.234Z,26.89
2022-08-22T00:33:08.324Z,26.89
2022-08-22T00:33:28.455Z,26.92
2022-08-22T00:33:38.489Z,26.91
2022-08-22T00:33:48.696Z,26.89
2022-08-22T00:33:58.585Z,26.92
2022-08-22T00:34:08.659Z,26.92
2022-08-22T00:34:28.735Z,26.92
2022-08-22T00:34:38.806Z,26.92
2022-08-22T00:34:48.855Z,26.92
2022-08-22T00:34:58.882Z,26.89
2022-08-22T00:35:08.994Z,26.89
2022-08-22T00:35:29.046Z,26.89
2022-08-22T00:35:43.014Z,26.92
2022-08-22T00:35:49.185Z,26.89
2022-08-22T00:35:59.215Z,26.91
2022-08-22T00:36:09.339Z,26.91
2022-08-22T00:36:29.424Z,26.91
2022-08-22T00:36:39.677Z,26.89
2022-08-22T00:36:49.697Z,26.91
2022-08-22T00:36:59.556Z,26.87
2022-08-22T00:37:09.597Z,26.91
2022-08-22T00:37:29.635Z,26.91
2022-08-22T00:37:39.696Z,26.87
2022-08-22T00:37:49.728Z,26.87
2022-08-22T00:37:59.842Z,26.87
2022-08-22T00:38:09.867Z,26.89
2022-08-22T00:38:29.956Z,26.87
2022-08-22T00:38:39.977Z,26.87
2022-08-22T00:38:49.997Z,26.91
2022-08-22T00:39:00.201Z,26.92
2022-08-22T00:39:10.096Z,26.89
2022-08-22T00:39:20.229Z,26.89
2022-08-22T00:39:30.196Z,26.92
2022-08-22T00:39:40.277Z,26.92
2022-08-22T00:39:50.360Z,26.91
2022-08-22T00:40:03.346Z,26.94
2022-08-22T00:40:10.566Z,26.95
2022-08-22T00:40:20.544Z,26.94
2022-08-22T00:40:30.636Z,26.92
2022-08-22T00:40:40.697Z,26.92
2022-08-22T00:40:50.717Z,26.94
2022-08-22T00:41:00.836Z,26.94
2022-08-22T00:41:20.927Z,26.94
2022-08-22T00:41:30.973Z,26.92
2022-08-22T00:41:41.000Z,26.92
2022-08-22T00:41:51.029Z,26.92
2022-08-22T00:42:01.086Z,26.91
2022-08-22T00:42:29.511Z,26.91
2022-08-22T00:42:32.256Z,26.92
2022-08-22T00:42:41.698Z,26.92
2022-08-22T00:42:51.437Z,26.89
2022-08-22T00:43:01.466Z,26.91
2022-08-22T00:43:21.699Z,26.91
2022-08-22T00:43:31.747Z,26.87
2022-08-22T00:43:41.908Z,26.87
2022-08-22T00:43:52.339Z,26.89
2022-08-22T00:44:01.929Z,26.87
2022-08-22T00:44:22.897Z,26.89
2022-08-22T00:44:32.208Z,26.87
2022-08-22T00:44:42.288Z,26.91
2022-08-22T00:44:52.329Z,26.91
2022-08-22T00:45:02.397Z,26.89
2022-08-22T00:45:22.449Z,26.91
2022-08-22T00:45:32.487Z,26.91
2022-08-22T00:45:42.508Z,26.92
2022-08-22T00:45:52.668Z,26.92
2022-08-22T00:46:02.568Z,26.92
2022-08-22T00:46:22.760Z,26.92
2022-08-22T00:46:32.779Z,26.92
2022-08-22T00:46:42.829Z,26.91
2022-08-22T00:46:52.997Z,26.91
2022-08-22T00:47:02.892Z,26.91
2022-08-22T00:47:22.969Z,26.87
2022-08-22T00:47:33.017Z,26.87
2022-08-22T00:47:43.046Z,26.87
2022-08-22T00:47:53.135Z,26.87
2022-08-22T00:48:03.140Z,26.84
2022-08-22T00:48:23.349Z,26.86
2022-08-22T00:48:33.359Z,26.86
2022-08-22T00:48:43.410Z,26.86
2022-08-22T00:48:53.700Z,26.84
2022-08-22T00:49:03.439Z,26.86
2022-08-22T00:49:27.136Z,26.83
2022-08-22T00:49:33.528Z,26.84
2022-08-22T00:49:43.562Z,26.84
2022-08-22T00:49:53.579Z,26.87
2022-08-22T00:50:03.700Z,26.87
2022-08-22T00:50:23.748Z,26.89
2022-08-22T00:50:33.830Z,26.87
2022-08-22T00:50:44.009Z,26.91
2022-08-22T00:50:53.900Z,26.89
2022-08-22T00:51:03.938Z,26.91
2022-08-22T00:51:23.980Z,26.91
2022-08-22T00:51:34.211Z,26.91
2022-08-22T00:51:44.199Z,26.91
2022-08-22T00:51:54.220Z,26.87
2022-08-22T00:52:04.281Z,26.92
2022-08-22T00:52:24.443Z,26.92
2022-08-22T00:52:34.590Z,26.89
2022-08-22T00:52:44.690Z,26.87
2022-08-22T00:52:55.367Z,26.87
2022-08-22T00:53:04.718Z,26.86
2022-08-22T00:53:24.831Z,26.87
2022-08-22T00:53:34.891Z,26.89
2022-08-22T00:53:44.931Z,26.89
2022-08-22T00:53:54.971Z,26.86
2022-08-22T00:54:06.811Z,26.89
2022-08-22T00:54:25.131Z,26.89
2022-08-22T00:54:35.233Z,26.89
2022-08-22T00:54:45.259Z,26.89
2022-08-22T00:54:55.341Z,26.89
2022-08-22T00:55:05.371Z,26.87
2022-08-22T00:55:25.611Z,26.87
2022-08-22T00:55:36.418Z,26.86
2022-08-22T00:55:45.580Z,26.86
2022-08-22T00:55:55.624Z,26.89
2022-08-22T00:56:05.651Z,26.86
2022-08-22T00:56:25.830Z,26.87
2022-08-22T00:56:36.189Z,26.84
2022-08-22T00:56:46.107Z,26.84
2022-08-22T00:56:56.043Z,26.86
2022-08-22T00:57:06.082Z,26.87
2022-08-22T00:57:26.229Z,26.87
2022-08-22T00:57:36.341Z,26.84
2022-08-22T00:57:46.472Z,26.87
2022-08-22T00:57:56.503Z,26.86
2022-08-22T00:58:06.717Z,26.86
2022-08-22T00:58:26.622Z,26.84
2022-08-22T00:58:36.710Z,26.84
2022-08-22T00:58:46.844Z,26.83
2022-08-22T00:58:56.862Z,26.83
2022-08-22T00:59:10.599Z,26.83
2022-08-22T00:59:26.933Z,26.80
2022-08-22T00:59:37.011Z,26.84
2022-08-22T00:59:47.173Z,26.79
2022-08-22T00:59:57.071Z,26.83
2022-08-22T01:00:07.135Z,26.81
2022-08-22T01:00:27.210Z,26.83
2022-08-22T01:00:37.242Z,26.81
2022-08-22T01:00:47.370Z,26.81
2022-08-22T01:00:57.468Z,26.81
2022-08-22T01:01:07.549Z,26.81
2022-08-22T01:01:27.763Z,26.81
2022-08-22T01:01:37.877Z,26.83
2022-08-22T01:01:47.906Z,26.81
2022-08-22T01:01:58.113Z,26.80
2022-08-22T01:02:08.017Z,26.79
2022-08-22T01:02:28.212Z,26.80
2022-08-22T01:02:38.134Z,26.80
2022-08-22T01:02:52.415Z,26.81
2022-08-22T01:02:58.342Z,26.79
2022-08-22T01:03:08.383Z,26.81
2022-08-22T01:03:28.594Z,26.81
2022-08-22T01:03:38.663Z,26.83
2022-08-22T01:03:48.823Z,26.81
2022-08-22T01:03:58.903Z,26.81
2022-08-22T01:04:08.803Z,26.84
2022-08-22T01:04:28.898Z,26.84
2022-08-22T01:04:39.041Z,26.83
2022-08-22T01:04:49.123Z,26.84
2022-08-22T01:04:59.718Z,26.84
2022-08-22T01:05:09.753Z,26.86
2022-08-22T01:05:29.417Z,26.84
2022-08-22T01:05:39.294Z,26.86
2022-08-22T01:05:49.305Z,26.87
2022-08-22T01:05:59.723Z,26.84
2022-08-22T01:06:09.492Z,26.84
2022-08-22T01:06:29.553Z,26.86
2022-08-22T01:06:39.584Z,26.86
2022-08-22T01:06:49.595Z,26.83
2022-08-22T01:06:59.636Z,26.86
2022-08-22T01:07:09.665Z,26.84
2022-08-22T01:07:30.637Z,26.86
2022-08-22T01:07:39.974Z,26.83
2022-08-22T01:07:50.048Z,26.83
2022-08-22T01:08:00.253Z,26.83
2022-08-22T01:08:10.207Z,26.83
2022-08-22T01:08:20.235Z,26.83
2022-08-22T01:08:30.295Z,26.83
2022-08-22T01:08:41.295Z,26.84
2022-08-22T01:08:50.474Z,26.81
2022-08-22T01:09:00.506Z,26.83
2022-08-22T01:09:20.535Z,26.81
2022-08-22T01:09:30.564Z,26.81
2022-08-22T01:09:40.603Z,26.80
2022-08-22T01:09:50.637Z,26.80
2022-08-22T01:10:00.685Z,26.80
2022-08-22T01:10:20.863Z,26.79
2022-08-22T01:10:30.904Z,26.79
2022-08-22T01:10:40.954Z,26.80
2022-08-22T01:10:50.977Z,26.79
2022-08-22T01:11:01.089Z,26.79
2022-08-22T01:11:21.364Z,26.77
2022-08-22T01:11:31.528Z,26.81
2022-08-22T01:11:41.439Z,26.79
2022-08-22T01:11:51.316Z,26.81
2022-08-22T01:12:01.404Z,26.80
2022-08-22T01:12:21.475Z,26.81
2022-08-22T01:12:31.717Z,26.81
2022-08-22T01:12:41.650Z,26.81
2022-08-22T01:12:51.676Z,26.84
2022-08-22T01:13:01.705Z,26.81
2022-08-22T01:13:21.756Z,26.81
2022-08-22T01:13:31.785Z,26.81
2022-08-22T01:13:41.857Z,26.81
2022-08-22T01:13:51.884Z,26.83
2022-08-22T01:14:01.906Z,26.81
2022-08-22T01:14:34.682Z,26.81
2022-08-22T01:14:35.095Z,26.81
2022-08-22T01:14:42.386Z,26.83
2022-08-22T01:14:52.267Z,26.81
2022-08-22T01:15:02.450Z,26.81
2022-08-22T01:15:22.725Z,26.83
2022-08-22T01:15:32.487Z,26.80
2022-08-22T01:15:42.526Z,26.81
2022-08-22T01:15:52.735Z,26.80
2022-08-22T01:16:02.763Z,26.81
2022-08-22T01:16:22.647Z,26.81
2022-08-22T01:16:32.762Z,26.79
2022-08-22T01:16:42.783Z,26.81
2022-08-22T01:16:52.809Z,26.80
2022-08-22T01:17:02.906Z,26.81
2022-08-22T01:17:23.007Z,26.77
2022-08-22T01:17:33.076Z,26.79
2022-08-22T01:17:43.107Z,26.76
2022-08-22T01:17:53.197Z,26.77
2022-08-22T01:18:03.390Z,26.77
2022-08-22T01:18:13.527Z,26.77
2022-08-22T01:18:23.256Z,26.77
2022-08-22T01:18:33.387Z,26.76
2022-08-22T01:18:43.426Z,26.74
2022-08-22T01:18:53.486Z,26.77
2022-08-22T01:19:03.524Z,26.76
2022-08-22T01:19:13.557Z,26.77
2022-08-22T01:19:24.595Z,26.76
2022-08-22T01:19:33.708Z,26.76
2022-08-22T01:19:43.617Z,26.77
2022-08-22T01:19:53.674Z,26.79
2022-08-22T01:20:03.714Z,26.76
2022-08-22T01:20:13.737Z,26.77
2022-08-22T01:20:23.791Z,26.76
2022-08-22T01:20:33.837Z,26.77
2022-08-22T01:20:43.888Z,26.77
2022-08-22T01:20:53.919Z,26.76
2022-08-22T01:21:03.948Z,26.74
2022-08-22T01:21:13.988Z,26.74
2022-08-22T01:21:24.410Z,26.74
2022-08-22T01:21:34.090Z,26.73
2022-08-22T01:21:44.127Z,26.74
2022-08-22T01:21:54.407Z,26.74
2022-08-22T01:22:04.453Z,26.73
2022-08-22T01:22:14.677Z,26.74
2022-08-22T01:22:24.418Z,26.73
2022-08-22T01:22:34.658Z,26.73
2022-08-22T01:22:44.567Z,26.72
2022-08-22T01:22:54.719Z,26.72
2022-08-22T01:23:04.607Z,26.72
2022-08-22T01:23:14.688Z,26.69
2022-08-22T01:23:24.738Z,26.73
2022-08-22T01:23:34.769Z,26.69
2022-08-22T01:23:44.818Z,26.72
2022-08-22T01:23:54.928Z,26.72
2022-08-22T01:24:04.966Z,26.72
2022-08-22T01:24:14.999Z,26.68
2022-08-22T01:24:26.079Z,26.69
2022-08-22T01:24:35.235Z,26.67
2022-08-22T01:24:45.519Z,26.65
2022-08-22T01:24:55.389Z,26.67
2022-08-22T01:25:05.496Z,26.67
2022-08-22T01:25:15.555Z,26.69
2022-08-22T01:25:26.285Z,26.67
2022-08-22T01:25:35.800Z,26.69
2022-08-22T01:25:45.736Z,26.68
2022-08-22T01:25:55.760Z,26.68
2022-08-22T01:26:05.778Z,26.68
2022-08-22T01:26:15.919Z,26.67
2022-08-22T01:26:26.146Z,26.67
2022-08-22T01:26:36.060Z,26.69
2022-08-22T01:26:46.258Z,26.68
2022-08-22T01:26:56.119Z,26.69
2022-08-22T01:27:06.223Z,26.69
2022-08-22T01:27:16.561Z,26.68
2022-08-22T01:27:26.390Z,26.68
2022-08-22T01:27:36.449Z,26.68
2022-08-22T01:27:46.489Z,26.68
2022-08-22T01:27:56.599Z,26.67
2022-08-22T01:28:06.620Z,26.67
2022-08-22T01:28:16.670Z,26.67
2022-08-22T01:28:26.715Z,26.67
2022-08-22T01:28:36.944Z,26.67
2022-08-22T01:28:46.909Z,26.69
2022-08-22T01:28:56.938Z,26.67
2022-08-22T01:29:09.493Z,26.67
2022-08-22T01:29:17.598Z,26.67
2022-08-22T01:29:28.667Z,26.65
2022-08-22T01:29:37.479Z,26.67
2022-08-22T01:29:47.352Z,26.67
2022-08-22T01:29:58.329Z,26.68
2022-08-22T01:30:07.580Z,26.67
2022-08-22T01:30:17.809Z,26.67
2022-08-22T01:30:27.781Z,26.67
2022-08-22T01:30:37.817Z,26.67
2022-08-22T01:30:47.851Z,26.67
2022-08-22T01:30:57.879Z,26.68
2022-08-22T01:31:07.984Z,26.68
2022-08-22T01:31:18.012Z,26.68
2022-08-22T01:31:28.060Z,26.67
2022-08-22T01:31:38.100Z,26.67
2022-08-22T01:31:48.129Z,26.65
2022-08-22T01:31:58.770Z,26.67
2022-08-22T01:32:08.208Z,26.65
2022-08-22T01:32:18.243Z,26.65
2022-08-22T01:32:28.261Z,26.65
2022-08-22T01:32:38.508Z,26.65
2022-08-22T01:32:48.390Z,26.67
2022-08-22T01:32:58.410Z,26.65
2022-08-22T01:33:08.441Z,26.67
2022-08-22T01:33:18.460Z,26.65
2022-08-22T01:33:28.491Z,26.67
2022-08-22T01:33:38.521Z,26.68
2022-08-22T01:33:48.552Z,26.67
2022-08-22T01:33:58.559Z,26.68
2022-08-22T01:34:12.228Z,26.67
2022-08-22T01:34:18.611Z,26.68
2022-08-22T01:34:28.652Z,26.65
2022-08-22T01:34:38.681Z,26.72
2022-08-22T01:34:48.711Z,26.67
2022-08-22T01:34:58.752Z,26.67
2022-08-22T01:35:08.782Z,26.65
2022-08-22T01:35:18.821Z,26.67
2022-08-22T01:35:28.919Z,26.68
2022-08-22T01:35:38.951Z,26.65
2022-08-22T01:35:48.982Z,26.67
2022-08-22T01:35:59.010Z,26.65
2022-08-22T01:36:09.031Z,26.65
2022-08-22T01:36:19.052Z,26.64
2022-08-22T01:36:29.121Z,26.65
2022-08-22T01:36:39.167Z,26.67
2022-08-22T01:36:49.191Z,26.67
2022-08-22T01:36:59.207Z,26.65
2022-08-22T01:37:09.229Z,26.64
2022-08-22T01:37:19.292Z,26.65
2022-08-22T01:37:29.323Z,26.65
2022-08-22T01:37:43.655Z,26.65
2022-08-22T01:37:49.422Z,26.64
2022-08-22T01:37:59.714Z,26.64
2022-08-22T01:38:09.561Z,26.65
2022-08-22T01:38:19.581Z,26.64
2022-08-22T01:38:29.622Z,26.65
2022-08-22T01:38:39.652Z,26.64
2022-08-22T01:38:49.671Z,26.65
2022-08-22T01:38:59.751Z,26.61
2022-08-22T01:39:19.794Z,26.62
2022-08-22T01:39:29.824Z,26.62
2022-08-22T01:39:39.881Z,26.64
2022-08-22T01:39:49.997Z,26.64
2022-08-22T01:39:59.969Z,26.64
2022-08-22T01:40:10.030Z,26.64
2022-08-22T01:40:20.172Z,26.64
2022-08-22T01:40:30.134Z,26.64
2022-08-22T01:40:47.574Z,26.64
2022-08-22T01:40:54.041Z,26.65
2022-08-22T01:41:00.350Z,26.62
2022-08-22T01:41:10.508Z,26.64
2022-08-22T01:41:20.512Z,26.62
2022-08-22T01:41:30.532Z,26.64
2022-08-22T01:41:40.553Z,26.65
2022-08-22T01:41:50.583Z,26.65
2022-08-22T01:42:00.612Z,26.64
2022-08-22T01:42:10.634Z,26.64
2022-08-22T01:42:20.664Z,26.64
2022-08-22T01:42:30.683Z,26.64
2022-08-22T01:42:40.700Z,26.64
2022-08-22T01:42:50.740Z,26.64
2022-08-22T01:43:00.752Z,26.62
2022-08-22T01:43:10.773Z,26.64
2022-08-22T01:43:20.793Z,26.62
2022-08-22T01:43:43.851Z,26.62
2022-08-22T01:43:59.262Z,26.59
2022-08-22T01:43:59.381Z,26.61
2022-08-22T01:44:01.339Z,26.62
2022-08-22T01:44:11.362Z,26.61
2022-08-22T01:44:21.383Z,26.61
2022-08-22T01:44:31.401Z,26.58
2022-08-22T01:44:41.432Z,26.61
2022-08-22T01:44:51.455Z,26.61
2022-08-22T01:45:01.483Z,26.59
2022-08-22T01:45:11.513Z,26.62
2022-08-22T01:45:21.544Z,26.59
2022-08-22T01:45:31.573Z,26.61
2022-08-22T01:45:41.595Z,26.58
2022-08-22T01:45:51.621Z,26.61
2022-08-22T01:46:01.654Z,26.57
2022-08-22T01:46:11.685Z,26.59
2022-08-22T01:46:21.714Z,26.58
2022-08-22T01:46:31.761Z,26.58
2022-08-22T01:46:41.774Z,26.58
2022-08-22T01:46:51.794Z,26.57
2022-08-22T01:47:01.814Z,26.58
2022-08-22T01:47:11.832Z,26.57
2022-08-22T01:47:21.854Z,26.59
2022-08-22T01:47:37.371Z,26.59
2022-08-22T01:47:41.985Z,26.58
2022-08-22T01:47:53.705Z,26.58
2022-08-22T01:48:02.054Z,26.61
2022-08-22T01:48:12.096Z,26.58
2022-08-22T01:48:22.215Z,26.59
2022-08-22T01:48:32.304Z,26.59
2022-08-22T01:48:42.324Z,26.58
2022-08-22T01:48:52.345Z,26.59
2022-08-22T01:49:02.366Z,26.58
2022-08-22T01:49:12.424Z,26.59
2022-08-22T01:49:22.464Z,26.59
2022-08-22T01:49:32.477Z,26.58
2022-08-22T01:49:42.494Z,26.59
2022-08-22T01:49:52.514Z,26.58
2022-08-22T01:50:02.535Z,26.59
2022-08-22T01:50:12.575Z,26.61
2022-08-22T01:50:22.636Z,26.59
2022-08-22T01:50:32.665Z,26.59
2022-08-22T01:50:42.696Z,26.61
2022-08-22T01:50:52.722Z,26.64
2022-08-22T01:51:02.744Z,26.62
2022-08-22T01:51:12.781Z,26.61
2022-08-22T01:51:22.804Z,26.61
2022-08-22T01:51:32.825Z,26.59
2022-08-22T01:51:42.854Z,26.59
2022-08-22T01:51:52.875Z,26.62
2022-08-22T01:52:02.903Z,26.59
2022-08-22T01:52:12.932Z,26.59
2022-08-22T01:52:22.947Z,26.59
2022-08-22T01:52:32.976Z,26.61
2022-08-22T01:52:43.006Z,26.59
2022-08-22T01:52:53.027Z,26.61
2022-08-22T01:53:03.067Z,26.59
2022-08-22T01:53:13.089Z,26.59
2022-08-22T01:53:23.115Z,26.59
2022-08-22T01:53:33.146Z,26.61
2022-08-22T01:53:43.186Z,26.59
2022-08-22T01:53:53.218Z,26.59
2022-08-22T01:54:03.253Z,26.59
2022-08-22T01:54:13.277Z,26.61
2022-08-22T01:54:23.286Z,26.59
2022-08-22T01:54:33.306Z,26.61
2022-08-22T01:54:43.327Z,26.59
2022-08-22T01:54:53.346Z,26.59
2022-08-22T01:55:03.357Z,26.61
2022-08-22T01:55:13.387Z,26.59
2022-08-22T01:55:23.606Z,26.61
2022-08-22T01:55:33.487Z,26.61
2022-08-22T01:55:43.507Z,26.61
2022-08-22T01:55:53.546Z,26.61
2022-08-22T01:56:03.575Z,26.59
2022-08-22T01:56:13.604Z,26.61
2022-08-22T01:56:23.627Z,26.61
2022-08-22T01:56:33.656Z,26.59
2022-08-22T01:56:43.677Z,26.61
2022-08-22T01:56:53.717Z,26.62
2022-08-22T01:57:03.752Z,26.62
2022-08-22T01:57:13.769Z,26.61
2022-08-22T01:57:23.796Z,26.62
2022-08-22T01:57:33.817Z,26.62
2022-08-22T01:57:43.847Z,26.61
2022-08-22T01:57:53.877Z,26.62
2022-08-22T01:58:03.908Z,26.61
2022-08-22T01:58:13.937Z,26.61
2022-08-22T01:58:23.986Z,26.62
2022-08-22T01:58:34.018Z,26.62
2022-08-22T01:58:44.037Z,26.61
2022-08-22T01:58:54.058Z,26.61
2022-08-22T01:59:04.087Z,26.59
2022-08-22T01:59:14.206Z,26.59
2022-08-22T01:59:28.910Z,26.59
2022-08-22T01:59:34.349Z,26.59
2022-08-22T01:59:44.367Z,26.61
2022-08-22T01:59:54.406Z,26.59
2022-08-22T02:00:04.438Z,26.62
2022-08-22T02:00:14.459Z,26.61
2022-08-22T02:00:34.710Z,26.59
2022-08-22T02:00:35.782Z,26.59
2022-08-22T02:00:44.707Z,26.59
2022-08-22T02:00:54.771Z,26.59
2022-08-22T02:01:04.838Z,26.61
2022-08-22T02:01:14.904Z,26.61
2022-08-22T02:01:25.045Z,26.61
2022-08-22T02:01:34.987Z,26.59
2022-08-22T02:01:45.020Z,26.59
2022-08-22T02:01:55.044Z,26.61
2022-08-22T02:02:05.056Z,26.62
2022-08-22T02:02:15.097Z,26.62
2022-08-22T02:02:25.119Z,26.62
2022-08-22T02:02:35.138Z,26.61
2022-08-22T02:02:45.169Z,26.64
2022-08-22T02:02:55.201Z,26.61
2022-08-22T02:03:05.230Z,26.59
2022-08-22T02:03:15.249Z,26.61
2022-08-22T02:03:25.300Z,26.61
2022-08-22T02:03:35.324Z,26.58
2022-08-22T02:03:45.338Z,26.61
2022-08-22T02:03:55.367Z,26.59
2022-08-22T02:04:05.479Z,26.58
2022-08-22T02:04:15.510Z,26.61
2022-08-22T02:04:25.538Z,26.59
2022-08-22T02:04:35.580Z,26.62
2022-08-22T02:04:45.608Z,26.61
2022-08-22T02:04:55.637Z,26.61
2022-08-22T02:05:05.659Z,26.61
2022-08-22T02:05:15.678Z,26.62
2022-08-22T02:05:25.726Z,26.61
2022-08-22T02:05:35.749Z,26.59
2022-08-22T02:05:45.778Z,26.59
2022-08-22T02:05:55.809Z,26.61
2022-08-22T02:06:05.838Z,26.61
2022-08-22T02:06:15.868Z,26.62
2022-08-22T02:06:25.910Z,26.58
2022-08-22T02:06:35.938Z,26.61
2022-08-22T02:06:45.966Z,26.59
2022-08-22T02:06:55.998Z,26.61
2022-08-22T02:07:06.020Z,26.59
2022-08-22T02:07:16.050Z,26.58
2022-08-22T02:07:31.574Z,26.59
2022-08-22T02:07:36.200Z,26.55
2022-08-22T02:07:46.227Z,26.57
2022-08-22T02:07:56.882Z,26.58
2022-08-22T02:08:06.341Z,26.57
2022-08-22T02:08:16.390Z,26.57
2022-08-22T02:08:26.422Z,26.58
2022-08-22T02:08:36.440Z,26.58
2022-08-22T02:08:46.460Z,26.57
2022-08-22T02:08:56.509Z,26.55
2022-08-22T02:09:06.541Z,26.55
2022-08-22T02:09:16.570Z,26.55
2022-08-22T02:09:26.580Z,26.55
2022-08-22T02:09:36.613Z,26.55
2022-08-22T02:09:46.630Z,26.54
2022-08-22T02:09:56.646Z,26.55
2022-08-22T02:10:06.648Z,26.54
2022-08-22T02:10:16.690Z,26.52
2022-08-22T02:10:26.750Z,26.52
2022-08-22T02:10:36.780Z,26.52
2022-08-22T02:10:46.800Z,26.52
2022-08-22T02:10:56.839Z,26.50
2022-08-22T02:11:06.851Z,26.50
2022-08-22T02:11:16.897Z,26.50
2022-08-22T02:11:26.923Z,26.50
2022-08-22T02:11:36.950Z,26.50
2022-08-22T02:11:46.979Z,26.52
2022-08-22T02:11:57.011Z,26.52
2022-08-22T02:12:07.049Z,26.55
2022-08-22T02:12:21.849Z,26.54
2022-08-22T02:12:27.276Z,26.54
2022-08-22T02:12:37.304Z,26.55
2022-08-22T02:12:47.331Z,26.57
2022-08-22T02:12:57.411Z,26.57
2022-08-22T02:13:07.430Z,26.55
2022-08-22T02:13:17.451Z,26.59
2022-08-22T02:13:27.482Z,26.58
2022-08-22T02:13:37.540Z,26.61
2022-08-22T02:13:47.792Z,26.61
2022-08-22T02:13:58.633Z,26.59
2022-08-22T02:14:07.791Z,26.61
2022-08-22T02:14:18.311Z,26.62
2022-08-22T02:14:27.902Z,26.62
2022-08-22T02:14:37.973Z,26.61
2022-08-22T02:14:48.021Z,26.62
2022-08-22T02:14:58.054Z,26.61
2022-08-22T02:15:08.094Z,26.64
2022-08-22T02:15:18.224Z,26.62
2022-08-22T02:15:28.244Z,26.61
2022-08-22T02:15:38.392Z,26.59
2022-08-22T02:15:48.429Z,26.62
2022-08-22T02:15:58.313Z,26.61